sensor_id;sensor_type;location;lat;lon;timestamp;P1;durP1;ratioP1;P2;durP2;ratioP2
40058;SDS011;25763;49.972;8.568;2022-09-16T00:01:46;6.18;;;5.68;;
40058;SDS011;25763;49.972;8.568;2022-09-16T00:04:11;6.30;;;5.80;;
40058;SDS011;25763;49.972;8.568;2022-09-16T00:06:37;6.18;;;5.78;;
40058;SDS011;25763;49.972;8.568;2022-09-16T00:09:02;5.65;;;5.25;;
40058;SDS011;25763;49.972;8.568;2022-09-16T00:11:28;6.00;;;5.60;;
40058;SDS011;25763;49.972;8.568;2022-09-16T00:13:58;6.75;;;6.28;;
40058;SDS011;25763;49.972;8.568;2022-09-16T00:16:24;6.00;;;5.60;;
40058;SDS011;25763;49.972;8.568;2022-09-16T00:18:52;5.50;;;5.10;;
40058;SDS011;25763;49.972;8.568;2022-09-16T00:21:19;6.10;;;5.57;;
40058;SDS011;25763;49.972;8.568;2022-09-16T00:23:44;5.45;;;5.05;;
40058;SDS011;25763;49.972;8.568;2022-09-16T00:26:10;6.53;;;6.03;;
40058;SDS011;25763;49.972;8.568;2022-09-16T00:28:35;6.10;;;5.70;;
40058;SDS011;25763;49.972;8.568;2022-09-16T00:31:01;6.75;;;6.25;;
40058;SDS011;25763;49.972;8.568;2022-09-16T00:33:27;5.15;;;4.75;;
40058;SDS011;25763;49.972;8.568;2022-09-16T00:36:03;6.05;;;5.65;;
40058;SDS011;25763;49.972;8.568;2022-09-16T00:38:35;5.75;;;5.35;;
40058;SDS011;25763;49.972;8.568;2022-09-16T00:41:01;5.40;;;5.00;;
40058;SDS011;25763;49.972;8.568;2022-09-16T00:43:28;5.57;;;5.18;;
40058;SDS011;25763;49.972;8.568;2022-09-16T00:45:54;6.00;;;5.60;;
40058;SDS011;25763;49.972;8.568;2022-09-16T00:48:23;5.43;;;5.03;;
40058;SDS011;25763;49.972;8.568;2022-09-16T00:50:55;5.20;;;4.80;;
40058;SDS011;25763;49.972;8.568;2022-09-16T00:53:25;5.50;;;5.10;;
40058;SDS011;25763;49.972;8.568;2022-09-16T00:55:53;6.05;;;5.55;;
40058;SDS011;25763;49.972;8.568;2022-09-16T01:01:14;5.38;;;4.97;;
40058;SDS011;25763;49.972;8.568;2022-09-16T01:03:44;5.63;;;5.22;;
40058;SDS011;25763;49.972;8.568;2022-09-16T01:06:12;5.43;;;5.03;;
40058;SDS011;25763;49.972;8.568;2022-09-16T01:08:43;8.18;;;5.47;;
40058;SDS011;25763;49.972;8.568;2022-09-16T01:11:09;5.55;;;5.15;;
40058;SDS011;25763;49.972;8.568;2022-09-16T01:13:34;5.47;;;5.07;;
40058;SDS011;25763;49.972;8.568;2022-09-16T01:19:11;5.60;;;5.15;;
40058;SDS011;25763;49.972;8.568;2022-09-16T01:24:42;7.00;;;5.57;;
40058;SDS011;25763;49.972;8.568;2022-09-16T01:41:51;5.72;;;5.32;;
40058;SDS011;25763;49.972;8.568;2022-09-16T01:46:57;5.00;;;4.60;;
40058;SDS011;25763;49.972;8.568;2022-09-16T01:49:33;5.72;;;5.32;;
40058;SDS011;25763;49.972;8.568;2022-09-16T01:55:02;4.90;;;4.50;;
40058;SDS011;25763;49.972;8.568;2022-09-16T01:57:36;6.38;;;5.80;;
40058;SDS011;25763;49.972;8.568;2022-09-16T02:00:14;5.05;;;4.65;;
40058;SDS011;25763;49.972;8.568;2022-09-16T02:02:54;5.93;;;5.53;;
40058;SDS011;25763;49.972;8.568;2022-09-16T02:05:23;5.60;;;5.10;;
40058;SDS011;25763;49.972;8.568;2022-09-16T02:07:58;5.65;;;5.25;;
40058;SDS011;25763;49.972;8.568;2022-09-16T02:10:31;6.65;;;6.07;;
40058;SDS011;25763;49.972;8.568;2022-09-16T02:13:03;5.63;;;5.22;;
40058;SDS011;25763;49.972;8.568;2022-09-16T02:15:32;5.60;;;5.18;;
40058;SDS011;25763;49.972;8.568;2022-09-16T02:18:00;5.28;;;4.88;;
40058;SDS011;25763;49.972;8.568;2022-09-16T02:20:30;5.63;;;5.22;;
40058;SDS011;25763;49.972;8.568;2022-09-16T02:23:02;5.30;;;4.90;;
40058;SDS011;25763;49.972;8.568;2022-09-16T02:25:32;5.28;;;4.88;;
40058;SDS011;25763;49.972;8.568;2022-09-16T02:28:02;5.82;;;5.32;;
40058;SDS011;25763;49.972;8.568;2022-09-16T02:30:31;5.30;;;4.88;;
40058;SDS011;25763;49.972;8.568;2022-09-16T02:33:00;5.60;;;5.20;;
40058;SDS011;25763;49.972;8.568;2022-09-16T02:35:33;5.53;;;5.13;;
40058;SDS011;25763;49.972;8.568;2022-09-16T02:38:05;6.30;;;5.80;;
40058;SDS011;25763;49.972;8.568;2022-09-16T02:40:44;5.80;;;5.38;;
40058;SDS011;25763;49.972;8.568;2022-09-16T02:43:14;6.18;;;5.68;;
40058;SDS011;25763;49.972;8.568;2022-09-16T02:54:17;5.82;;;5.43;;
40058;SDS011;25763;49.972;8.568;2022-09-16T02:56:46;5.30;;;4.90;;
40058;SDS011;25763;49.972;8.568;2022-09-16T02:59:12;5.72;;;5.32;;
40058;SDS011;25763;49.972;8.568;2022-09-16T03:01:40;5.85;;;5.45;;
40058;SDS011;25763;49.972;8.568;2022-09-16T03:04:11;5.90;;;5.50;;
40058;SDS011;25763;49.972;8.568;2022-09-16T03:06:38;5.57;;;5.18;;
40058;SDS011;25763;49.972;8.568;2022-09-16T03:09:05;6.28;;;5.88;;
40058;SDS011;25763;49.972;8.568;2022-09-16T03:11:40;5.63;;;5.22;;
40058;SDS011;25763;49.972;8.568;2022-09-16T03:14:33;6.13;;;5.72;;
40058;SDS011;25763;49.972;8.568;2022-09-16T03:20:28;5.88;;;5.47;;
40058;SDS011;25763;49.972;8.568;2022-09-16T03:25:33;6.13;;;5.63;;
40058;SDS011;25763;49.972;8.568;2022-09-16T03:33:33;7.47;;;6.88;;
40058;SDS011;25763;49.972;8.568;2022-09-16T03:36:04;7.25;;;6.60;;
40058;SDS011;25763;49.972;8.568;2022-09-16T03:38:35;7.20;;;6.70;;
40058;SDS011;25763;49.972;8.568;2022-09-16T03:41:03;5.95;;;5.55;;
40058;SDS011;25763;49.972;8.568;2022-09-16T03:43:31;6.32;;;5.93;;
40058;SDS011;25763;49.972;8.568;2022-09-16T03:45:56;6.88;;;6.38;;
40058;SDS011;25763;49.972;8.568;2022-09-16T03:48:21;6.75;;;6.25;;
40058;SDS011;25763;49.972;8.568;2022-09-16T03:50:47;6.82;;;6.32;;
40058;SDS011;25763;49.972;8.568;2022-09-16T03:53:12;6.65;;;6.15;;
40058;SDS011;25763;49.972;8.568;2022-09-16T03:55:37;6.38;;;5.88;;
40058;SDS011;25763;49.972;8.568;2022-09-16T03:58:03;6.75;;;6.30;;
40058;SDS011;25763;49.972;8.568;2022-09-16T04:00:28;11.63;;;7.00;;
40058;SDS011;25763;49.972;8.568;2022-09-16T04:02:54;6.82;;;6.32;;
40058;SDS011;25763;49.972;8.568;2022-09-16T04:05:19;6.85;;;6.35;;
40058;SDS011;25763;49.972;8.568;2022-09-16T04:07:47;7.43;;;6.93;;
40058;SDS011;25763;49.972;8.568;2022-09-16T04:10:13;7.13;;;6.63;;
40058;SDS011;25763;49.972;8.568;2022-09-16T04:12:39;6.65;;;6.15;;
40058;SDS011;25763;49.972;8.568;2022-09-16T04:15:04;6.25;;;5.85;;
40058;SDS011;25763;49.972;8.568;2022-09-16T04:17:31;6.55;;;6.13;;
40058;SDS011;25763;49.972;8.568;2022-09-16T04:19:57;6.80;;;6.30;;
40058;SDS011;25763;49.972;8.568;2022-09-16T04:22:22;7.03;;;6.53;;
40058;SDS011;25763;49.972;8.568;2022-09-16T04:24:48;7.35;;;6.70;;
40058;SDS011;25763;49.972;8.568;2022-09-16T04:27:13;8.63;;;7.05;;
40058;SDS011;25763;49.972;8.568;2022-09-16T04:29:38;6.90;;;6.40;;
40058;SDS011;25763;49.972;8.568;2022-09-16T04:32:04;7.60;;;7.00;;
40058;SDS011;25763;49.972;8.568;2022-09-16T04:34:29;7.90;;;7.30;;
40058;SDS011;25763;49.972;8.568;2022-09-16T04:36:56;7.00;;;6.50;;
40058;SDS011;25763;49.972;8.568;2022-09-16T04:39:22;7.38;;;6.88;;
40058;SDS011;25763;49.972;8.568;2022-09-16T04:41:47;7.22;;;6.72;;
40058;SDS011;25763;49.972;8.568;2022-09-16T04:44:13;7.70;;;7.20;;
40058;SDS011;25763;49.972;8.568;2022-09-16T04:46:39;7.45;;;6.95;;
40058;SDS011;25763;49.972;8.568;2022-09-16T04:49:04;6.82;;;6.32;;
40058;SDS011;25763;49.972;8.568;2022-09-16T04:51:30;7.43;;;6.93;;
40058;SDS011;25763;49.972;8.568;2022-09-16T04:53:57;7.25;;;6.75;;
40058;SDS011;25763;49.972;8.568;2022-09-16T04:56:27;7.25;;;6.75;;
40058;SDS011;25763;49.972;8.568;2022-09-16T04:58:55;7.50;;;7.00;;
40058;SDS011;25763;49.972;8.568;2022-09-16T05:01:24;7.60;;;7.10;;
40058;SDS011;25763;49.972;8.568;2022-09-16T05:03:52;7.93;;;7.43;;
40058;SDS011;25763;49.972;8.568;2022-09-16T05:06:20;7.57;;;7.07;;
40058;SDS011;25763;49.972;8.568;2022-09-16T05:08:47;7.97;;;7.20;;
40058;SDS011;25763;49.972;8.568;2022-09-16T05:11:14;7.82;;;7.32;;
40058;SDS011;25763;49.972;8.568;2022-09-16T05:13:44;7.03;;;6.53;;
40058;SDS011;25763;49.972;8.568;2022-09-16T05:16:10;7.30;;;6.80;;
40058;SDS011;25763;49.972;8.568;2022-09-16T05:18:37;6.97;;;6.38;;
40058;SDS011;25763;49.972;8.568;2022-09-16T05:21:04;7.35;;;6.85;;
40058;SDS011;25763;49.972;8.568;2022-09-16T05:23:32;7.55;;;6.88;;
40058;SDS011;25763;49.972;8.568;2022-09-16T05:26:02;8.55;;;8.05;;
40058;SDS011;25763;49.972;8.568;2022-09-16T05:28:32;8.15;;;7.65;;
40058;SDS011;25763;49.972;8.568;2022-09-16T05:31:12;10.30;;;7.53;;
40058;SDS011;25763;49.972;8.568;2022-09-16T05:33:53;7.10;;;6.60;;
40058;SDS011;25763;49.972;8.568;2022-09-16T05:36:22;7.10;;;6.60;;
40058;SDS011;25763;49.972;8.568;2022-09-16T05:38:48;6.68;;;6.20;;
40058;SDS011;25763;49.972;8.568;2022-09-16T05:41:14;6.90;;;6.40;;
40058;SDS011;25763;49.972;8.568;2022-09-16T05:43:39;7.60;;;7.10;;
40058;SDS011;25763;49.972;8.568;2022-09-16T05:46:05;7.93;;;6.93;;
40058;SDS011;25763;49.972;8.568;2022-09-16T05:48:31;6.20;;;5.80;;
40058;SDS011;25763;49.972;8.568;2022-09-16T05:50:59;7.50;;;7.00;;
40058;SDS011;25763;49.972;8.568;2022-09-16T05:53:27;7.60;;;7.10;;
40058;SDS011;25763;49.972;8.568;2022-09-16T05:56:03;7.80;;;7.30;;
40058;SDS011;25763;49.972;8.568;2022-09-16T05:58:34;7.60;;;7.07;;
40058;SDS011;25763;49.972;8.568;2022-09-16T06:01:01;7.20;;;6.70;;
40058;SDS011;25763;49.972;8.568;2022-09-16T06:03:27;7.10;;;6.60;;
40058;SDS011;25763;49.972;8.568;2022-09-16T06:08:35;7.07;;;6.57;;
40058;SDS011;25763;49.972;8.568;2022-09-16T06:11:04;7.22;;;6.72;;
40058;SDS011;25763;49.972;8.568;2022-09-16T06:13:31;7.47;;;6.97;;
40058;SDS011;25763;49.972;8.568;2022-09-16T06:15:58;8.02;;;7.43;;
40058;SDS011;25763;49.972;8.568;2022-09-16T06:18:24;6.55;;;6.15;;
40058;SDS011;25763;49.972;8.568;2022-09-16T06:20:51;7.45;;;6.85;;
40058;SDS011;25763;49.972;8.568;2022-09-16T06:23:17;6.75;;;6.25;;
40058;SDS011;25763;49.972;8.568;2022-09-16T06:25:43;7.68;;;7.10;;
40058;SDS011;25763;49.972;8.568;2022-09-16T06:28:08;6.63;;;6.18;;
40058;SDS011;25763;49.972;8.568;2022-09-16T06:30:35;7.18;;;6.68;;
40058;SDS011;25763;49.972;8.568;2022-09-16T06:33:04;7.18;;;6.68;;
40058;SDS011;25763;49.972;8.568;2022-09-16T06:35:30;6.85;;;6.35;;
40058;SDS011;25763;49.972;8.568;2022-09-16T06:37:57;7.32;;;6.82;;
40058;SDS011;25763;49.972;8.568;2022-09-16T06:40:24;6.88;;;6.38;;
40058;SDS011;25763;49.972;8.568;2022-09-16T06:42:51;7.30;;;6.80;;
40058;SDS011;25763;49.972;8.568;2022-09-16T06:45:22;6.60;;;6.10;;
40058;SDS011;25763;49.972;8.568;2022-09-16T06:47:48;7.55;;;6.95;;
40058;SDS011;25763;49.972;8.568;2022-09-16T06:50:14;7.60;;;6.85;;
40058;SDS011;25763;49.972;8.568;2022-09-16T06:52:39;6.88;;;6.38;;
40058;SDS011;25763;49.972;8.568;2022-09-16T06:55:05;6.70;;;6.22;;
40058;SDS011;25763;49.972;8.568;2022-09-16T06:57:30;7.43;;;6.93;;
40058;SDS011;25763;49.972;8.568;2022-09-16T06:59:56;13.00;;;7.95;;
40058;SDS011;25763;49.972;8.568;2022-09-16T07:02:21;7.78;;;7.28;;
40058;SDS011;25763;49.972;8.568;2022-09-16T07:04:47;7.65;;;7.15;;
40058;SDS011;25763;49.972;8.568;2022-09-16T07:07:13;7.45;;;6.95;;
40058;SDS011;25763;49.972;8.568;2022-09-16T07:09:38;14.90;;;6.55;;
40058;SDS011;25763;49.972;8.568;2022-09-16T07:12:04;7.53;;;6.93;;
40058;SDS011;25763;49.972;8.568;2022-09-16T07:14:30;7.13;;;6.63;;
40058;SDS011;25763;49.972;8.568;2022-09-16T07:16:59;7.28;;;6.78;;
40058;SDS011;25763;49.972;8.568;2022-09-16T07:19:25;7.20;;;6.70;;
40058;SDS011;25763;49.972;8.568;2022-09-16T07:21:51;6.05;;;5.65;;
40058;SDS011;25763;49.972;8.568;2022-09-16T07:24:16;6.00;;;5.60;;
40058;SDS011;25763;49.972;8.568;2022-09-16T07:26:42;6.15;;;5.75;;
40058;SDS011;25763;49.972;8.568;2022-09-16T07:29:09;5.72;;;5.32;;
40058;SDS011;25763;49.972;8.568;2022-09-16T07:31:36;5.60;;;5.20;;
40058;SDS011;25763;49.972;8.568;2022-09-16T07:34:03;6.43;;;5.85;;
40058;SDS011;25763;49.972;8.568;2022-09-16T07:36:32;5.65;;;5.25;;
40058;SDS011;25763;49.972;8.568;2022-09-16T07:38:59;5.63;;;5.22;;
40058;SDS011;25763;49.972;8.568;2022-09-16T07:41:26;6.28;;;5.88;;
40058;SDS011;25763;49.972;8.568;2022-09-16T07:43:58;5.97;;;5.57;;
40058;SDS011;25763;49.972;8.568;2022-09-16T07:46:25;5.68;;;5.28;;
40058;SDS011;25763;49.972;8.568;2022-09-16T07:48:53;10.32;;;4.97;;
40058;SDS011;25763;49.972;8.568;2022-09-16T07:51:19;5.55;;;5.15;;
40058;SDS011;25763;49.972;8.568;2022-09-16T07:53:47;5.57;;;5.18;;
40058;SDS011;25763;49.972;8.568;2022-09-16T07:56:17;6.28;;;5.78;;
40058;SDS011;25763;49.972;8.568;2022-09-16T07:58:44;6.22;;;5.72;;
40058;SDS011;25763;49.972;8.568;2022-09-16T08:01:11;5.78;;;5.38;;
40058;SDS011;25763;49.972;8.568;2022-09-16T08:03:39;5.53;;;5.13;;
40058;SDS011;25763;49.972;8.568;2022-09-16T08:06:06;5.60;;;5.20;;
40058;SDS011;25763;49.972;8.568;2022-09-16T08:08:33;5.32;;;4.93;;
40058;SDS011;25763;49.972;8.568;2022-09-16T08:10:59;5.70;;;5.30;;
40058;SDS011;25763;49.972;8.568;2022-09-16T08:13:25;5.72;;;5.32;;
40058;SDS011;25763;49.972;8.568;2022-09-16T08:15:53;5.50;;;5.10;;
40058;SDS011;25763;49.972;8.568;2022-09-16T08:18:19;5.85;;;5.45;;
40058;SDS011;25763;49.972;8.568;2022-09-16T08:20:44;5.53;;;5.13;;
40058;SDS011;25763;49.972;8.568;2022-09-16T08:23:10;6.70;;;6.22;;
40058;SDS011;25763;49.972;8.568;2022-09-16T08:25:38;6.65;;;6.15;;
40058;SDS011;25763;49.972;8.568;2022-09-16T08:28:03;7.20;;;6.70;;
40058;SDS011;25763;49.972;8.568;2022-09-16T08:30:29;6.57;;;6.07;;
40058;SDS011;25763;49.972;8.568;2022-09-16T08:32:55;6.90;;;6.40;;
40058;SDS011;25763;49.972;8.568;2022-09-16T08:35:24;6.28;;;5.85;;
40058;SDS011;25763;49.972;8.568;2022-09-16T08:37:50;7.05;;;6.55;;
40058;SDS011;25763;49.972;8.568;2022-09-16T08:40:17;5.85;;;5.45;;
40058;SDS011;25763;49.972;8.568;2022-09-16T08:48:20;6.60;;;6.10;;
40058;SDS011;25763;49.972;8.568;2022-09-16T08:51:15;8.32;;;7.82;;
40058;SDS011;25763;49.972;8.568;2022-09-16T08:53:54;7.13;;;6.63;;
40058;SDS011;25763;49.972;8.568;2022-09-16T08:56:24;8.45;;;7.85;;
40058;SDS011;25763;49.972;8.568;2022-09-16T08:58:54;9.18;;;8.57;;
40058;SDS011;25763;49.972;8.568;2022-09-16T09:01:26;6.70;;;6.20;;
40058;SDS011;25763;49.972;8.568;2022-09-16T09:03:56;7.80;;;7.30;;
40058;SDS011;25763;49.972;8.568;2022-09-16T09:09:35;7.63;;;7.13;;
40058;SDS011;25763;49.972;8.568;2022-09-16T09:20:28;6.80;;;6.30;;
40058;SDS011;25763;49.972;8.568;2022-09-16T09:23:29;6.85;;;6.35;;
40058;SDS011;25763;49.972;8.568;2022-09-16T09:26:20;6.93;;;6.43;;
40058;SDS011;25763;49.972;8.568;2022-09-16T09:31:48;7.07;;;6.57;;
40058;SDS011;25763;49.972;8.568;2022-09-16T09:43:13;7.22;;;6.72;;
40058;SDS011;25763;49.972;8.568;2022-09-16T09:50:51;7.60;;;7.10;;
40058;SDS011;25763;49.972;8.568;2022-09-16T09:56:15;6.63;;;6.18;;
40058;SDS011;25763;49.972;8.568;2022-09-16T09:58:47;7.28;;;6.78;;
40058;SDS011;25763;49.972;8.568;2022-09-16T10:01:21;8.75;;;8.18;;
40058;SDS011;25763;49.972;8.568;2022-09-16T10:03:47;9.05;;;8.35;;
40058;SDS011;25763;49.972;8.568;2022-09-16T10:06:14;11.82;;;11.13;;
40058;SDS011;25763;49.972;8.568;2022-09-16T10:08:44;9.20;;;8.50;;
40058;SDS011;25763;49.972;8.568;2022-09-16T10:11:16;13.27;;;12.48;;
40058;SDS011;25763;49.972;8.568;2022-09-16T10:13:46;9.50;;;8.90;;
40058;SDS011;25763;49.972;8.568;2022-09-16T10:16:15;11.45;;;10.77;;
40058;SDS011;25763;49.972;8.568;2022-09-16T10:18:54;8.25;;;7.75;;
40058;SDS011;25763;49.972;8.568;2022-09-16T10:21:39;9.95;;;9.35;;
40058;SDS011;25763;49.972;8.568;2022-09-16T10:26:58;11.23;;;10.52;;
40058;SDS011;25763;49.972;8.568;2022-09-16T10:29:25;8.50;;;8.00;;
40058;SDS011;25763;49.972;8.568;2022-09-16T10:31:51;11.90;;;11.20;;
40058;SDS011;25763;49.972;8.568;2022-09-16T10:37:03;8.75;;;8.23;;
40058;SDS011;25763;49.972;8.568;2022-09-16T10:39:36;7.40;;;6.90;;
40058;SDS011;25763;49.972;8.568;2022-09-16T10:42:14;6.82;;;6.32;;
40058;SDS011;25763;49.972;8.568;2022-09-16T10:44:42;7.50;;;7.00;;
40058;SDS011;25763;49.972;8.568;2022-09-16T10:47:20;7.15;;;6.65;;
40058;SDS011;25763;49.972;8.568;2022-09-16T10:49:51;7.00;;;6.50;;
40058;SDS011;25763;49.972;8.568;2022-09-16T10:52:21;6.93;;;6.43;;
40058;SDS011;25763;49.972;8.568;2022-09-16T10:54:52;7.22;;;6.72;;
40058;SDS011;25763;49.972;8.568;2022-09-16T11:05:51;6.75;;;6.25;;
40058;SDS011;25763;49.972;8.568;2022-09-16T11:09:04;6.32;;;5.93;;
40058;SDS011;25763;49.972;8.568;2022-09-16T11:17:21;7.63;;;7.07;;
40058;SDS011;25763;49.972;8.568;2022-09-16T11:25:36;7.32;;;6.82;;
40058;SDS011;25763;49.972;8.568;2022-09-16T11:41:58;6.75;;;6.25;;
40058;SDS011;25763;49.972;8.568;2022-09-16T11:47:33;7.25;;;6.75;;
40058;SDS011;25763;49.972;8.568;2022-09-16T11:55:50;7.55;;;7.05;;
40058;SDS011;25763;49.972;8.568;2022-09-16T12:00:50;7.57;;;7.07;;
40058;SDS011;25763;49.972;8.568;2022-09-16T12:03:23;7.82;;;7.32;;
40058;SDS011;25763;49.972;8.568;2022-09-16T12:05:56;7.07;;;6.57;;
40058;SDS011;25763;49.972;8.568;2022-09-16T12:08:30;7.15;;;6.65;;
40058;SDS011;25763;49.972;8.568;2022-09-16T12:11:02;7.00;;;6.50;;
40058;SDS011;25763;49.972;8.568;2022-09-16T12:13:37;12.02;;;11.32;;
40058;SDS011;25763;49.972;8.568;2022-09-16T12:16:10;11.93;;;11.18;;
40058;SDS011;25763;49.972;8.568;2022-09-16T12:18:47;6.95;;;6.45;;
40058;SDS011;25763;49.972;8.568;2022-09-16T12:23:47;9.02;;;8.43;;
40058;SDS011;25763;49.972;8.568;2022-09-16T12:26:36;10.93;;;10.25;;
40058;SDS011;25763;49.972;8.568;2022-09-16T12:29:09;9.13;;;8.52;;
40058;SDS011;25763;49.972;8.568;2022-09-16T12:31:41;10.95;;;10.30;;
40058;SDS011;25763;49.972;8.568;2022-09-16T12:34:25;9.38;;;8.77;;
40058;SDS011;25763;49.972;8.568;2022-09-16T12:36:56;10.57;;;9.98;;
40058;SDS011;25763;49.972;8.568;2022-09-16T12:39:28;8.10;;;7.60;;
40058;SDS011;25763;49.972;8.568;2022-09-16T12:42:01;11.15;;;10.48;;
40058;SDS011;25763;49.972;8.568;2022-09-16T13:01:30;9.32;;;8.73;;
40058;SDS011;25763;49.972;8.568;2022-09-16T13:06:44;9.00;;;8.40;;
40058;SDS011;25763;49.972;8.568;2022-09-16T13:09:34;7.75;;;7.25;;
40058;SDS011;25763;49.972;8.568;2022-09-16T13:12:03;7.57;;;7.07;;
40058;SDS011;25763;49.972;8.568;2022-09-16T13:14:40;9.55;;;8.95;;
40058;SDS011;25763;49.972;8.568;2022-09-16T13:17:11;8.80;;;8.27;;
40058;SDS011;25763;49.972;8.568;2022-09-16T13:19:50;9.15;;;8.55;;
40058;SDS011;25763;49.972;8.568;2022-09-16T13:22:32;8.00;;;7.50;;
40058;SDS011;25763;49.972;8.568;2022-09-16T13:25:42;9.57;;;8.98;;
40058;SDS011;25763;49.972;8.568;2022-09-16T13:28:21;7.35;;;6.85;;
40058;SDS011;25763;49.972;8.568;2022-09-16T13:30:56;8.15;;;7.65;;
40058;SDS011;25763;49.972;8.568;2022-09-16T13:38:57;7.68;;;7.18;;
40058;SDS011;25763;49.972;8.568;2022-09-16T13:49:35;7.43;;;6.93;;
40058;SDS011;25763;49.972;8.568;2022-09-16T13:52:18;8.18;;;7.38;;
40058;SDS011;25763;49.972;8.568;2022-09-16T13:54:51;7.68;;;7.18;;
40058;SDS011;25763;49.972;8.568;2022-09-16T14:00:34;8.20;;;7.70;;
40058;SDS011;25763;49.972;8.568;2022-09-16T14:05:42;8.65;;;8.10;;
40058;SDS011;25763;49.972;8.568;2022-09-16T14:13:29;7.45;;;6.95;;
40058;SDS011;25763;49.972;8.568;2022-09-16T14:15:59;8.85;;;8.25;;
40058;SDS011;25763;49.972;8.568;2022-09-16T14:18:25;7.65;;;7.15;;
40058;SDS011;25763;49.972;8.568;2022-09-16T14:20:57;8.18;;;7.65;;
40058;SDS011;25763;49.972;8.568;2022-09-16T14:23:26;8.13;;;7.63;;
40058;SDS011;25763;49.972;8.568;2022-09-16T14:25:52;7.47;;;6.97;;
40058;SDS011;25763;49.972;8.568;2022-09-16T14:36:19;8.27;;;7.78;;
40058;SDS011;25763;49.972;8.568;2022-09-16T14:41:53;9.48;;;8.88;;
40058;SDS011;25763;49.972;8.568;2022-09-16T14:49:10;8.20;;;7.70;;
40058;SDS011;25763;49.972;8.568;2022-09-16T14:51:38;8.20;;;7.70;;
40058;SDS011;25763;49.972;8.568;2022-09-16T14:54:14;6.60;;;6.15;;
40058;SDS011;25763;49.972;8.568;2022-09-16T14:56:41;5.80;;;5.40;;
40058;SDS011;25763;49.972;8.568;2022-09-16T14:59:10;8.68;;;5.68;;
40058;SDS011;25763;49.972;8.568;2022-09-16T15:01:38;5.30;;;4.90;;
40058;SDS011;25763;49.972;8.568;2022-09-16T15:04:07;5.97;;;5.57;;
40058;SDS011;25763;49.972;8.568;2022-09-16T15:06:41;5.88;;;5.47;;
40058;SDS011;25763;49.972;8.568;2022-09-16T15:09:13;5.57;;;5.18;;
40058;SDS011;25763;49.972;8.568;2022-09-16T15:12:01;6.13;;;5.72;;
40058;SDS011;25763;49.972;8.568;2022-09-16T15:14:27;5.55;;;5.10;;
40058;SDS011;25763;49.972;8.568;2022-09-16T15:16:54;5.75;;;5.35;;
40058;SDS011;25763;49.972;8.568;2022-09-16T15:19:25;5.78;;;5.38;;
40058;SDS011;25763;49.972;8.568;2022-09-16T15:21:56;5.88;;;5.47;;
40058;SDS011;25763;49.972;8.568;2022-09-16T15:24:22;6.03;;;5.63;;
40058;SDS011;25763;49.972;8.568;2022-09-16T15:26:52;6.28;;;5.88;;
40058;SDS011;25763;49.972;8.568;2022-09-16T15:31:44;6.20;;;5.80;;
40058;SDS011;25763;49.972;8.568;2022-09-16T15:42:11;5.72;;;5.32;;
40058;SDS011;25763;49.972;8.568;2022-09-16T15:44:53;6.30;;;5.90;;
40058;SDS011;25763;49.972;8.568;2022-09-16T15:47:30;5.50;;;5.10;;
40058;SDS011;25763;49.972;8.568;2022-09-16T15:50:05;5.10;;;4.70;;
40058;SDS011;25763;49.972;8.568;2022-09-16T15:55:11;5.00;;;4.60;;
40058;SDS011;25763;49.972;8.568;2022-09-16T15:57:38;5.68;;;5.28;;
40058;SDS011;25763;49.972;8.568;2022-09-16T16:00:08;4.83;;;4.43;;
40058;SDS011;25763;49.972;8.568;2022-09-16T16:02:42;5.72;;;5.32;;
40058;SDS011;25763;49.972;8.568;2022-09-16T16:05:17;5.13;;;4.72;;
40058;SDS011;25763;49.972;8.568;2022-09-16T16:07:49;5.20;;;4.80;;
40058;SDS011;25763;49.972;8.568;2022-09-16T16:10:17;5.80;;;5.40;;
40058;SDS011;25763;49.972;8.568;2022-09-16T16:12:45;6.25;;;5.85;;
40058;SDS011;25763;49.972;8.568;2022-09-16T16:15:14;6.85;;;6.35;;
40058;SDS011;25763;49.972;8.568;2022-09-16T16:17:41;5.65;;;5.25;;
40058;SDS011;25763;49.972;8.568;2022-09-16T16:20:07;5.80;;;5.40;;
40058;SDS011;25763;49.972;8.568;2022-09-16T16:22:36;6.20;;;5.80;;
40058;SDS011;25763;49.972;8.568;2022-09-16T16:25:01;5.93;;;5.53;;
40058;SDS011;25763;49.972;8.568;2022-09-16T16:27:26;5.40;;;5.00;;
40058;SDS011;25763;49.972;8.568;2022-09-16T16:29:52;5.07;;;4.68;;
40058;SDS011;25763;49.972;8.568;2022-09-16T16:32:17;5.78;;;5.38;;
40058;SDS011;25763;49.972;8.568;2022-09-16T16:34:44;5.25;;;4.85;;
40058;SDS011;25763;49.972;8.568;2022-09-16T16:37:12;6.28;;;5.88;;
40058;SDS011;25763;49.972;8.568;2022-09-16T16:39:39;5.72;;;5.32;;
40058;SDS011;25763;49.972;8.568;2022-09-16T16:42:05;6.05;;;5.65;;
40058;SDS011;25763;49.972;8.568;2022-09-16T16:44:32;6.43;;;5.82;;
40058;SDS011;25763;49.972;8.568;2022-09-16T16:46:58;5.72;;;5.32;;
40058;SDS011;25763;49.972;8.568;2022-09-16T16:49:24;5.70;;;5.30;;
40058;SDS011;25763;49.972;8.568;2022-09-16T16:51:50;5.53;;;5.13;;
40058;SDS011;25763;49.972;8.568;2022-09-16T16:54:17;6.03;;;5.43;;
40058;SDS011;25763;49.972;8.568;2022-09-16T16:56:44;6.38;;;5.97;;
40058;SDS011;25763;49.972;8.568;2022-09-16T16:59:10;5.50;;;5.10;;
40058;SDS011;25763;49.972;8.568;2022-09-16T17:01:36;5.40;;;5.00;;
40058;SDS011;25763;49.972;8.568;2022-09-16T17:04:02;5.20;;;4.80;;
40058;SDS011;25763;49.972;8.568;2022-09-16T17:06:28;5.80;;;5.30;;
40058;SDS011;25763;49.972;8.568;2022-09-16T17:08:54;5.85;;;5.45;;
40058;SDS011;25763;49.972;8.568;2022-09-16T17:11:20;6.55;;;6.10;;
40058;SDS011;25763;49.972;8.568;2022-09-16T17:13:48;5.93;;;5.53;;
40058;SDS011;25763;49.972;8.568;2022-09-16T17:16:15;6.60;;;6.15;;
40058;SDS011;25763;49.972;8.568;2022-09-16T17:18:43;5.78;;;5.38;;
40058;SDS011;25763;49.972;8.568;2022-09-16T17:21:10;6.00;;;5.60;;
40058;SDS011;25763;49.972;8.568;2022-09-16T17:23:37;6.53;;;6.03;;
40058;SDS011;25763;49.972;8.568;2022-09-16T17:26:03;6.70;;;6.20;;
40058;SDS011;25763;49.972;8.568;2022-09-16T17:28:29;6.57;;;6.13;;
40058;SDS011;25763;49.972;8.568;2022-09-16T17:30:55;6.53;;;6.10;;
40058;SDS011;25763;49.972;8.568;2022-09-16T17:33:20;6.68;;;6.18;;
40058;SDS011;25763;49.972;8.568;2022-09-16T17:35:46;7.35;;;6.85;;
40058;SDS011;25763;49.972;8.568;2022-09-16T17:38:12;7.15;;;6.65;;
40058;SDS011;25763;49.972;8.568;2022-09-16T17:40:37;6.38;;;5.95;;
40058;SDS011;25763;49.972;8.568;2022-09-16T17:43:02;6.72;;;6.22;;
40058;SDS011;25763;49.972;8.568;2022-09-16T17:45:28;6.50;;;6.10;;
40058;SDS011;25763;49.972;8.568;2022-09-16T17:47:56;7.05;;;6.55;;
40058;SDS011;25763;49.972;8.568;2022-09-16T17:50:23;7.18;;;6.68;;
40058;SDS011;25763;49.972;8.568;2022-09-16T17:52:48;7.78;;;7.28;;
40058;SDS011;25763;49.972;8.568;2022-09-16T17:55:14;7.93;;;7.40;;
40058;SDS011;25763;49.972;8.568;2022-09-16T17:57:39;7.72;;;7.13;;
40058;SDS011;25763;49.972;8.568;2022-09-16T18:00:05;7.55;;;7.05;;
40058;SDS011;25763;49.972;8.568;2022-09-16T18:02:33;7.40;;;6.90;;
40058;SDS011;25763;49.972;8.568;2022-09-16T18:04:59;7.70;;;7.20;;
40058;SDS011;25763;49.972;8.568;2022-09-16T18:07:25;8.18;;;7.68;;
40058;SDS011;25763;49.972;8.568;2022-09-16T18:09:50;8.50;;;7.95;;
40058;SDS011;25763;49.972;8.568;2022-09-16T18:12:15;7.22;;;6.72;;
40058;SDS011;25763;49.972;8.568;2022-09-16T18:14:41;8.40;;;7.80;;
40058;SDS011;25763;49.972;8.568;2022-09-16T18:17:06;7.38;;;6.88;;
40058;SDS011;25763;49.972;8.568;2022-09-16T18:19:31;7.93;;;7.43;;
40058;SDS011;25763;49.972;8.568;2022-09-16T18:21:57;7.20;;;6.70;;
40058;SDS011;25763;49.972;8.568;2022-09-16T18:24:22;7.75;;;7.25;;
40058;SDS011;25763;49.972;8.568;2022-09-16T18:26:47;8.40;;;7.80;;
40058;SDS011;25763;49.972;8.568;2022-09-16T18:29:13;8.38;;;7.88;;
40058;SDS011;25763;49.972;8.568;2022-09-16T18:31:40;8.23;;;7.72;;
40058;SDS011;25763;49.972;8.568;2022-09-16T18:34:07;7.30;;;6.80;;